Terminal Aerodrome Forecast
Issued by NWS Cleveland, OH

Home | Current Version | Previous Version | Text Only | Print | Product List | Glossary Off
Versions: 1 2 3 4 5 6 7 8 9 10 11 12

049
FTUS41 KCLE 241732
TAFYNG
TAF
KYNG 241732Z 2418/2518 02008KT P6SM SKC
     FM250400 07005KT P6SM SCT150=

USA.gov is the U.S. government's official web portal to all federal, state and local government web resources and services.